Portada
METAR-TAF:

METAR-TAF

Aeroports :

Jammu, Índia

latitud: 32-41-21N, longitud: 74-50-15E, altitud: 314 m

Observació

L'informe es va fer fa 2 hores i 39 minuts, a les 19:30 UTC
Vent 4 kt del Nord
Temperatura 24°C
Humitat 83%
Pressió 1007 hPa
Visibilitat: 6000 m
Cel clar

METAR: VIJU 281930Z 36004KT 6000 SKC 24/21 Q1007 NOSIG

Hora: 03:39 (22:09 UTC)

Pronòstic

L'informe es va fer fa 12 hores i 39 minuts, a les 09:30 UTC
Pronòstic vàlid del 28 a les 18 UTC al 29 a les 12 UTC
Vent 5 kt del Oest/Nord-Oest
Visibilitat: 6000 m

TAF: VIJU 280930Z 2818/2912 30005KT 6000 NSC

Observacions i pronòstics meteorològics de més de 4000 aeroports (METAR i TAF).

Les estacions disponibles són els punts grocs i vermells al mapa.

Posi el ratolí al punt desitjat per veure el nom de l'estació.

Feu clic per veure les observacions i els pronòstics meteorològics.

Per canviar el mapa: feu clic els botons verds amb una creu de color negre per apropar; al botó verd amb un guió per allunyar la imatge; o en les fletxes verdes per a mapes adjacents.


METAR-TAF: